createdAt,value
2023-04-29T00:01:11.294Z,14.14
2023-04-29T00:03:13.571Z,14.12
2023-04-29T00:05:16.161Z,14.13
2023-04-29T00:07:18.306Z,14.04
2023-04-29T00:09:21.339Z,14.08
2023-04-29T00:11:23.303Z,14.12
2023-04-29T00:13:26.242Z,14.10
2023-04-29T00:15:28.333Z,14.06
2023-04-29T00:17:30.544Z,14.05
2023-04-29T00:19:35.572Z,14.05
2023-04-29T00:21:37.753Z,13.96
2023-04-29T00:23:39.790Z,14.03
2023-04-29T00:25:41.801Z,14.07
2023-04-29T00:27:43.713Z,14.00
2023-04-29T00:29:45.699Z,14.01
2023-04-29T00:31:48.576Z,13.91
2023-04-29T00:33:50.478Z,13.94
2023-04-29T00:35:52.584Z,13.84
2023-04-29T00:37:54.767Z,13.69
2023-04-29T00:39:56.752Z,13.76
2023-04-29T00:42:01.276Z,13.77
2023-04-29T00:44:03.290Z,13.80
2023-04-29T00:46:05.397Z,13.73
2023-04-29T00:48:08.035Z,13.71
2023-04-29T00:50:10.394Z,13.71
2023-04-29T00:52:14.261Z,13.72
2023-04-29T00:54:16.967Z,13.62
2023-04-29T00:56:21.229Z,13.68
2023-04-29T00:58:30.675Z,13.64
2023-04-29T01:00:33.620Z,13.70
2023-04-29T01:02:35.757Z,13.64
2023-04-29T01:04:37.895Z,13.57
2023-04-29T01:06:54.888Z,13.60
2023-04-29T01:09:19.368Z,13.55
2023-04-29T01:11:26.330Z,13.55
2023-04-29T01:13:38.411Z,13.57
2023-04-29T01:15:52.706Z,13.53
2023-04-29T01:18:06.556Z,13.51
2023-04-29T01:20:10.594Z,13.49
2023-04-29T01:22:14.662Z,13.53
2023-04-29T01:24:16.856Z,13.51
2023-04-29T01:26:19.233Z,13.45
2023-04-29T01:28:27.274Z,13.46
2023-04-29T01:30:47.287Z,13.38
2023-04-29T01:33:04.767Z,13.43
2023-04-29T01:35:23.361Z,13.40
2023-04-29T01:37:35.483Z,13.34
2023-04-29T01:39:48.431Z,13.21
2023-04-29T01:42:03.342Z,13.22
2023-04-29T01:44:08.452Z,13.31
2023-04-29T01:46:11.987Z,13.30
2023-04-29T01:48:14.638Z,13.13
2023-04-29T01:50:16.736Z,13.07
2023-04-29T01:52:18.709Z,12.93
2023-04-29T01:54:22.499Z,13.07
2023-04-29T01:56:24.404Z,13.11
2023-04-29T01:58:26.412Z,13.20
2023-04-29T02:00:28.420Z,13.18
2023-04-29T02:02:30.657Z,13.15
2023-04-29T02:04:34.680Z,13.13
2023-04-29T02:06:36.630Z,13.20
2023-04-29T02:08:38.536Z,13.19
2023-04-29T02:10:40.570Z,13.22
2023-04-29T02:12:42.583Z,13.18
2023-04-29T02:14:44.485Z,13.17
2023-04-29T02:16:46.482Z,13.19
2023-04-29T02:18:48.413Z,13.20
2023-04-29T02:20:51.872Z,13.16
2023-04-29T02:22:53.741Z,13.16
2023-04-29T02:24:55.736Z,13.21
2023-04-29T02:26:57.662Z,13.20
2023-04-29T02:29:03.811Z,13.11
2023-04-29T02:31:05.949Z,13.07
2023-04-29T02:33:08.756Z,13.09
2023-04-29T02:35:10.878Z,13.09
2023-04-29T02:37:12.893Z,13.10
2023-04-29T02:39:14.765Z,12.99
2023-04-29T02:41:18.528Z,13.06
2023-04-29T02:43:20.538Z,13.13
2023-04-29T02:45:22.696Z,13.12
2023-04-29T02:47:24.801Z,13.09
2023-04-29T02:49:26.805Z,13.10
2023-04-29T02:51:30.257Z,13.04
2023-04-29T02:53:32.819Z,13.04
2023-04-29T02:55:34.772Z,13.03
2023-04-29T02:57:36.886Z,13.05
2023-04-29T02:59:39.399Z,13.09
2023-04-29T03:01:41.668Z,12.98
2023-04-29T03:03:44.586Z,13.05
2023-04-29T03:05:46.681Z,12.99
2023-04-29T03:07:48.841Z,12.93
2023-04-29T03:09:51.320Z,12.95
2023-04-29T03:11:53.624Z,13.09
2023-04-29T03:13:55.648Z,13.01
2023-04-29T03:15:59.735Z,12.96
2023-04-29T03:18:05.372Z,12.98
2023-04-29T03:20:11.245Z,12.84
2023-04-29T03:22:13.440Z,12.86
2023-04-29T03:24:16.119Z,12.90
2023-04-29T03:26:18.378Z,12.87
2023-04-29T03:28:20.318Z,12.87
2023-04-29T03:30:22.378Z,12.77
2023-04-29T03:32:27.084Z,12.86
2023-04-29T03:34:29.948Z,12.90
2023-04-29T03:36:31.936Z,12.87
2023-04-29T03:38:33.939Z,12.84
2023-04-29T03:40:37.262Z,12.85
2023-04-29T03:42:39.194Z,12.80
2023-04-29T03:44:41.443Z,12.74
2023-04-29T03:46:43.493Z,12.74
2023-04-29T03:48:45.424Z,12.74
2023-04-29T03:50:47.939Z,12.77
2023-04-29T03:52:49.925Z,12.70
2023-04-29T03:54:51.838Z,12.73
2023-04-29T03:56:55.932Z,12.72
2023-04-29T03:58:58.402Z,12.71
2023-04-29T04:01:00.542Z,12.75
2023-04-29T04:03:05.207Z,12.68
2023-04-29T04:05:08.234Z,12.65
2023-04-29T04:07:10.260Z,12.68
2023-04-29T04:09:12.365Z,12.71
2023-04-29T04:11:16.989Z,12.69
2023-04-29T04:13:18.973Z,12.66
2023-04-29T04:15:21.102Z,12.69
2023-04-29T04:17:23.104Z,12.51
2023-04-29T04:19:25.294Z,12.62
2023-04-29T04:21:27.765Z,12.62
2023-04-29T04:23:29.675Z,12.56
2023-04-29T04:25:34.089Z,12.59
2023-04-29T04:27:38.371Z,12.57
2023-04-29T04:29:40.350Z,12.60
2023-04-29T04:31:42.778Z,12.62
2023-04-29T04:33:46.116Z,12.62
2023-04-29T04:35:48.012Z,12.58
2023-04-29T04:37:50.439Z,12.51
2023-04-29T04:39:52.708Z,12.54
2023-04-29T04:41:55.044Z,12.51
2023-04-29T04:43:56.973Z,12.47
2023-04-29T04:45:59.065Z,12.44
2023-04-29T04:48:01.151Z,12.51
2023-04-29T04:50:04.540Z,12.36
2023-04-29T04:52:07.038Z,12.43
2023-04-29T04:54:09.000Z,12.48
2023-04-29T04:56:11.055Z,12.51
2023-04-29T04:58:15.236Z,12.54
2023-04-29T05:00:17.445Z,12.55
2023-04-29T05:02:19.446Z,12.47
2023-04-29T05:04:21.638Z,12.55
2023-04-29T05:06:23.986Z,12.50
2023-04-29T05:08:26.397Z,12.38
2023-04-29T05:10:28.315Z,12.44
2023-04-29T05:12:31.700Z,12.52
2023-04-29T05:14:33.773Z,12.53
2023-04-29T05:16:36.032Z,12.59
2023-04-29T05:18:38.151Z,12.60
2023-04-29T05:20:40.270Z,12.63
2023-04-29T05:22:42.500Z,12.71
2023-04-29T05:24:44.483Z,12.71
2023-04-29T05:26:46.476Z,12.67
2023-04-29T05:28:48.603Z,12.70
2023-04-29T05:30:52.268Z,12.63
2023-04-29T05:32:54.304Z,12.67
2023-04-29T05:34:58.745Z,12.66
2023-04-29T05:37:00.700Z,12.60
2023-04-29T05:39:02.706Z,12.70
2023-04-29T05:41:07.184Z,12.60
2023-04-29T05:43:09.425Z,12.74
2023-04-29T05:45:14.157Z,12.78
2023-04-29T05:47:19.246Z,12.83
2023-04-29T05:49:21.149Z,12.89
2023-04-29T05:51:23.134Z,12.95
2023-04-29T05:53:25.153Z,13.01
2023-04-29T05:55:30.804Z,13.02
2023-04-29T05:57:33.072Z,12.96
2023-04-29T05:59:35.119Z,13.06
2023-04-29T06:01:37.091Z,13.10
2023-04-29T06:03:39.254Z,13.05
2023-04-29T06:05:42.245Z,13.08
2023-04-29T06:07:45.161Z,13.00
2023-04-29T06:09:49.646Z,12.80
2023-04-29T06:11:53.529Z,12.79
2023-04-29T06:13:55.557Z,12.83
2023-04-29T06:15:57.544Z,12.98
2023-04-29T06:17:59.660Z,13.05
2023-04-29T06:20:02.407Z,13.14
2023-04-29T06:22:06.662Z,13.14
2023-04-29T06:24:08.811Z,13.12
2023-04-29T06:26:10.746Z,13.19
2023-04-29T06:28:12.697Z,13.22
2023-04-29T06:30:14.669Z,13.25
2023-04-29T06:32:16.932Z,13.33
2023-04-29T06:34:20.111Z,13.34
2023-04-29T06:36:22.189Z,13.31
2023-04-29T06:38:24.121Z,13.39
2023-04-29T06:40:26.305Z,13.40
2023-04-29T06:42:28.892Z,13.35
2023-04-29T06:44:31.256Z,13.22
2023-04-29T06:46:35.965Z,13.15
2023-04-29T06:48:41.282Z,13.19
2023-04-29T06:50:50.696Z,13.12
2023-04-29T06:52:55.133Z,13.16
2023-04-29T06:54:57.126Z,13.21
2023-04-29T06:56:59.186Z,13.38
2023-04-29T06:59:01.330Z,13.37
2023-04-29T07:01:04.410Z,13.52
2023-04-29T07:03:06.627Z,13.60
2023-04-29T07:05:09.606Z,13.61
2023-04-29T07:07:12.449Z,13.41
2023-04-29T07:09:14.630Z,13.34
2023-04-29T07:11:16.829Z,13.60
2023-04-29T07:13:18.744Z,13.69
2023-04-29T07:15:20.659Z,13.60
2023-04-29T07:17:22.713Z,13.62
2023-04-29T07:19:24.878Z,13.69
2023-04-29T07:21:27.433Z,13.59
2023-04-29T07:23:29.413Z,13.58
2023-04-29T07:25:31.363Z,13.68
2023-04-29T07:27:34.935Z,13.68
2023-04-29T07:29:37.226Z,13.52
2023-04-29T07:31:39.419Z,13.66
2023-04-29T07:33:41.590Z,13.62
2023-04-29T07:35:44.818Z,13.65
2023-04-29T07:37:49.423Z,13.68
2023-04-29T07:39:51.586Z,13.47
2023-04-29T07:41:57.906Z,13.46
2023-04-29T07:44:00.348Z,13.47
2023-04-29T07:46:02.505Z,13.53
2023-04-29T07:48:04.924Z,13.67
2023-04-29T07:50:07.556Z,13.72
2023-04-29T07:52:10.373Z,13.80
2023-04-29T07:54:12.518Z,13.79
2023-04-29T07:56:14.588Z,13.64
2023-04-29T07:58:16.645Z,13.70
2023-04-29T08:00:19.262Z,13.79
2023-04-29T08:02:22.099Z,13.81
2023-04-29T08:04:25.073Z,13.80
2023-04-29T08:06:27.361Z,13.88
2023-04-29T08:08:30.988Z,13.96
2023-04-29T08:10:33.310Z,13.70
2023-04-29T08:12:35.299Z,13.55
2023-04-29T08:14:37.230Z,13.62
2023-04-29T08:16:39.367Z,13.64
2023-04-29T08:18:42.013Z,13.50
2023-04-29T08:20:44.101Z,13.69
2023-04-29T08:22:48.750Z,13.79
2023-04-29T08:24:51.048Z,13.84
2023-04-29T08:26:53.954Z,13.80
2023-04-29T08:28:56.203Z,13.85
2023-04-29T08:30:58.354Z,13.66
2023-04-29T08:33:00.633Z,13.72
2023-04-29T08:35:03.392Z,13.75
2023-04-29T08:37:05.353Z,13.74
2023-04-29T08:39:07.404Z,13.79
2023-04-29T08:41:10.158Z,13.64
2023-04-29T08:43:15.813Z,13.82
2023-04-29T08:45:20.643Z,13.84
2023-04-29T08:47:23.620Z,13.93
2023-04-29T08:49:26.826Z,14.11
2023-04-29T08:51:29.033Z,13.98
2023-04-29T08:53:33.724Z,13.96
2023-04-29T08:55:37.494Z,13.99
2023-04-29T08:57:41.962Z,14.04
2023-04-29T08:59:44.160Z,14.14
2023-04-29T09:01:54.468Z,14.04
2023-04-29T09:04:04.916Z,14.19
2023-04-29T09:06:07.282Z,14.25
2023-04-29T09:08:10.229Z,14.28
2023-04-29T09:10:12.720Z,14.16
2023-04-29T09:12:18.933Z,14.40
2023-04-29T09:14:22.229Z,14.45
2023-04-29T09:16:24.277Z,14.55
2023-04-29T09:18:50.669Z,14.40
2023-04-29T09:20:52.772Z,14.53
2023-04-29T09:22:58.211Z,14.63
2023-04-29T09:25:13.427Z,14.58
2023-04-29T09:27:29.536Z,14.52
2023-04-29T09:29:33.208Z,14.51
2023-04-29T09:31:37.564Z,14.75
2023-04-29T09:33:51.990Z,14.95
2023-04-29T09:35:54.372Z,14.99
2023-04-29T09:38:09.869Z,14.97
2023-04-29T09:40:30.980Z,15.14
2023-04-29T09:42:43.532Z,15.34
2023-04-29T09:44:48.074Z,15.45
2023-04-29T09:47:03.402Z,15.61
2023-04-29T09:49:24.276Z,15.86
2023-04-29T09:51:26.550Z,16.02
2023-04-29T09:53:30.484Z,15.68
2023-04-29T09:55:32.811Z,15.70
2023-04-29T09:57:44.838Z,16.09
2023-04-29T09:59:47.360Z,16.25
2023-04-29T10:01:53.346Z,16.39
2023-04-29T10:03:59.612Z,16.44
2023-04-29T10:06:03.143Z,16.64
2023-04-29T10:08:05.538Z,16.75
2023-04-29T10:10:10.916Z,16.90
2023-04-29T10:12:18.840Z,17.15
2023-04-29T10:14:23.263Z,17.38
2023-04-29T10:16:30.477Z,17.35
2023-04-29T10:18:38.203Z,17.61
2023-04-29T10:20:45.940Z,17.78
2023-04-29T10:22:54.141Z,17.82
2023-04-29T10:25:00.757Z,18.10
2023-04-29T10:27:07.324Z,18.24
2023-04-29T10:29:15.682Z,18.40
2023-04-29T10:31:20.220Z,18.68
2023-04-29T10:33:27.882Z,18.51
2023-04-29T10:35:29.983Z,18.51
2023-04-29T10:37:33.440Z,18.02
2023-04-29T10:39:44.595Z,18.16
2023-04-29T10:41:47.569Z,18.25
2023-04-29T10:43:50.094Z,18.27
2023-04-29T10:46:21.626Z,18.42
2023-04-29T10:48:25.744Z,18.38
2023-04-29T10:50:29.727Z,18.62
2023-04-29T10:52:51.419Z,18.88
2023-04-29T10:55:04.032Z,19.03
2023-04-29T10:57:06.302Z,18.93
2023-04-29T10:59:14.541Z,18.86
2023-04-29T11:01:20.317Z,19.35
2023-04-29T11:03:42.052Z,19.19
2023-04-29T11:05:46.578Z,19.32
2023-04-29T11:07:48.807Z,19.17
2023-04-29T11:09:51.769Z,19.51
2023-04-29T11:11:58.846Z,19.51
2023-04-29T11:14:04.243Z,19.03
2023-04-29T11:16:09.585Z,19.28
2023-04-29T11:18:12.028Z,19.73
2023-04-29T11:20:14.681Z,19.17
2023-04-29T11:22:18.417Z,19.59
2023-04-29T11:24:20.716Z,19.86
2023-04-29T11:26:24.953Z,19.89
2023-04-29T11:28:28.513Z,19.52
2023-04-29T11:30:32.149Z,19.89
2023-04-29T11:32:38.192Z,19.73
2023-04-29T11:34:40.224Z,19.60
2023-04-29T11:36:42.233Z,19.85
2023-04-29T11:38:44.351Z,20.10
2023-04-29T11:40:49.871Z,20.23
2023-04-29T11:42:52.030Z,20.45
2023-04-29T11:44:57.009Z,20.63
2023-04-29T11:47:05.096Z,20.31
2023-04-29T11:49:07.375Z,20.17
2023-04-29T11:51:09.470Z,19.82
2023-04-29T11:53:11.555Z,19.96
2023-04-29T11:55:14.916Z,20.29
2023-04-29T11:57:17.685Z,20.59
2023-04-29T11:59:20.249Z,20.56
2023-04-29T12:01:22.789Z,20.58
2023-04-29T12:03:25.334Z,20.56
2023-04-29T12:05:28.414Z,20.71
2023-04-29T12:07:30.465Z,20.60
2023-04-29T12:09:43.642Z,21.01
2023-04-29T12:11:49.001Z,21.16
2023-04-29T12:13:51.218Z,21.34
2023-04-29T12:15:53.803Z,21.41
2023-04-29T12:17:56.078Z,21.48
2023-04-29T12:19:58.562Z,21.30
2023-04-29T12:22:08.063Z,21.12
2023-04-29T12:24:13.235Z,21.50
2023-04-29T12:26:15.239Z,21.70
2023-04-29T12:28:17.428Z,21.74
2023-04-29T12:30:20.659Z,21.83
2023-04-29T12:32:24.026Z,21.90
2023-04-29T12:34:30.475Z,21.95
2023-04-29T12:36:33.085Z,21.88
2023-04-29T12:38:36.674Z,21.76
2023-04-29T12:40:39.002Z,21.58
2023-04-29T12:42:41.398Z,21.67
2023-04-29T12:44:47.334Z,21.92
2023-04-29T12:46:49.325Z,21.99
2023-04-29T12:48:51.405Z,21.49
2023-04-29T12:50:53.667Z,21.96
2023-04-29T12:52:56.497Z,22.17
2023-04-29T12:55:01.735Z,21.88
2023-04-29T12:57:04.775Z,21.43
2023-04-29T12:59:08.769Z,21.34
2023-04-29T13:01:11.739Z,21.59
2023-04-29T13:03:13.991Z,21.51
2023-04-29T13:05:16.421Z,21.90
2023-04-29T13:07:18.565Z,21.98
2023-04-29T13:09:20.696Z,21.37
2023-04-29T13:11:22.639Z,21.49
2023-04-29T13:13:24.658Z,21.52
2023-04-29T13:15:27.627Z,21.66
2023-04-29T13:17:29.893Z,21.55
2023-04-29T13:19:48.052Z,21.67
2023-04-29T13:22:02.976Z,21.82
2023-04-29T13:24:05.681Z,22.31
2023-04-29T13:26:09.326Z,22.61
2023-04-29T13:28:12.571Z,22.68
2023-04-29T13:30:15.303Z,22.39
2023-04-29T13:32:18.730Z,22.35
2023-04-29T13:34:21.532Z,22.17
2023-04-29T13:36:23.576Z,22.53
2023-04-29T13:38:25.710Z,22.63
2023-04-29T13:40:28.527Z,22.74
2023-04-29T13:42:32.658Z,22.56
2023-04-29T13:44:52.250Z,22.85
2023-04-29T13:46:55.474Z,23.20
2023-04-29T13:49:21.014Z,23.42
2023-04-29T13:53:52.856Z,23.16
2023-04-29T13:58:40.292Z,24.05
2023-04-29T14:00:38.176Z,23.98
2023-04-29T14:02:38.477Z,24.00
2023-04-29T14:04:41.624Z,23.64
2023-04-29T14:06:44.408Z,23.45
2023-04-29T14:08:46.834Z,24.14
2023-04-29T14:10:48.758Z,24.25
2023-04-29T14:12:50.770Z,23.97
2023-04-29T14:14:53.682Z,23.76
2023-04-29T14:16:56.225Z,23.71
2023-04-29T14:18:59.206Z,24.24
2023-04-29T14:21:02.020Z,23.90
2023-04-29T14:23:04.347Z,23.93
2023-04-29T14:25:08.695Z,23.77
2023-04-29T14:27:10.803Z,23.55
2023-04-29T14:29:14.991Z,23.79
2023-04-29T14:31:18.949Z,24.04
2023-04-29T14:33:20.991Z,24.15
2023-04-29T14:35:22.902Z,24.20
2023-04-29T14:37:25.051Z,23.86
2023-04-29T14:39:27.674Z,24.48
2023-04-29T14:41:29.710Z,24.14
2023-04-29T14:43:31.670Z,24.02
2023-04-29T14:45:33.581Z,23.79
2023-04-29T14:47:35.649Z,23.94
2023-04-29T14:49:37.778Z,24.42
2023-04-29T14:51:39.780Z,24.84
2023-04-29T14:53:41.868Z,25.21
2023-04-29T14:55:44.355Z,25.36
2023-04-29T14:57:46.524Z,25.78
2023-04-29T14:59:49.772Z,25.92
2023-04-29T15:01:55.418Z,26.06
2023-04-29T15:03:57.576Z,25.22
2023-04-29T15:06:01.899Z,25.06
2023-04-29T15:08:04.306Z,25.12
2023-04-29T15:10:09.597Z,25.21
2023-04-29T15:12:12.274Z,25.14
2023-04-29T15:14:14.351Z,24.62
2023-04-29T15:16:16.619Z,24.77
2023-04-29T15:18:18.629Z,24.24
2023-04-29T15:20:20.578Z,24.08
2023-04-29T15:22:22.943Z,24.20
2023-04-29T15:24:25.168Z,24.11
2023-04-29T15:26:27.855Z,24.09
2023-04-29T15:28:30.086Z,24.18
2023-04-29T15:30:32.788Z,24.10
2023-04-29T15:32:34.774Z,23.92
2023-04-29T15:34:36.803Z,23.71
2023-04-29T15:36:38.815Z,23.76
2023-04-29T15:38:41.691Z,23.91
2023-04-29T15:40:43.614Z,23.95
2023-04-29T15:42:46.073Z,23.37
2023-04-29T15:44:48.304Z,23.73
2023-04-29T15:46:50.205Z,23.99
2023-04-29T15:48:52.362Z,23.50
2023-04-29T15:50:54.668Z,23.52
2023-04-29T15:52:58.950Z,23.29
2023-04-29T15:55:01.263Z,22.92
2023-04-29T15:57:04.754Z,23.05
2023-04-29T15:59:07.093Z,22.73
2023-04-29T16:01:10.535Z,22.93
2023-04-29T16:03:12.644Z,23.12
2023-04-29T16:05:14.705Z,22.64
2023-04-29T16:07:17.657Z,22.48
2023-04-29T16:09:20.017Z,22.54
2023-04-29T16:11:21.960Z,23.09
2023-04-29T16:13:23.902Z,22.84
2023-04-29T16:15:25.991Z,22.76
2023-04-29T16:17:28.578Z,22.89
2023-04-29T16:19:30.704Z,22.50
2023-04-29T16:21:33.142Z,22.86
2023-04-29T16:23:35.286Z,22.39
2023-04-29T16:25:39.671Z,22.45
2023-04-29T16:27:41.762Z,21.84
2023-04-29T16:29:44.090Z,21.93
2023-04-29T16:31:47.285Z,22.36
2023-04-29T16:33:49.467Z,22.09
2023-04-29T16:35:51.502Z,21.99
2023-04-29T16:37:53.673Z,22.14
2023-04-29T16:39:55.637Z,22.22
2023-04-29T16:41:57.712Z,21.75
2023-04-29T16:43:59.618Z,21.96
2023-04-29T16:46:01.630Z,21.88
2023-04-29T16:48:04.353Z,22.09
2023-04-29T16:50:08.430Z,22.28
2023-04-29T16:52:13.773Z,22.40
2023-04-29T16:54:16.519Z,22.53
2023-04-29T16:56:19.399Z,21.86
2023-04-29T16:58:22.274Z,21.70
2023-04-29T17:00:24.775Z,21.78
2023-04-29T17:02:27.659Z,21.76
2023-04-29T17:04:31.610Z,22.00
2023-04-29T17:06:37.782Z,21.28
2023-04-29T17:08:40.361Z,21.54
2023-04-29T17:10:42.643Z,21.62
2023-04-29T17:12:45.166Z,21.16
2023-04-29T17:14:48.561Z,21.00
2023-04-29T17:16:50.633Z,20.92
2023-04-29T17:18:53.273Z,20.96
2023-04-29T17:20:56.030Z,21.00
2023-04-29T17:23:00.793Z,20.89
2023-04-29T17:25:03.796Z,21.27
2023-04-29T17:27:05.828Z,21.19
2023-04-29T17:29:12.718Z,21.03
2023-04-29T17:31:15.605Z,21.00
2023-04-29T17:33:17.905Z,21.03
2023-04-29T17:35:20.016Z,21.10
2023-04-29T17:37:25.219Z,20.77
2023-04-29T17:39:27.131Z,20.88
2023-04-29T17:41:29.059Z,20.98
2023-04-29T17:43:33.990Z,20.92
2023-04-29T17:45:40.380Z,20.74
2023-04-29T17:47:42.410Z,20.54
2023-04-29T17:49:44.715Z,20.69
2023-04-29T17:51:46.606Z,20.13
2023-04-29T17:53:48.491Z,20.37
2023-04-29T17:55:50.665Z,20.17
2023-04-29T17:57:52.691Z,20.25
2023-04-29T17:59:55.837Z,20.08
2023-04-29T18:01:58.755Z,19.80
2023-04-29T18:04:01.337Z,19.97
2023-04-29T18:06:03.565Z,19.68
2023-04-29T18:08:05.810Z,19.70
2023-04-29T18:10:08.847Z,19.56
2023-04-29T18:12:10.823Z,19.66
2023-04-29T18:14:12.832Z,19.80
2023-04-29T18:16:14.842Z,19.66
2023-04-29T18:18:16.790Z,19.69
2023-04-29T18:20:19.257Z,19.52
2023-04-29T18:22:21.290Z,19.22
2023-04-29T18:24:23.220Z,19.25
2023-04-29T18:26:25.363Z,19.14
2023-04-29T18:28:29.106Z,19.23
2023-04-29T18:30:31.066Z,19.20
2023-04-29T18:32:32.914Z,19.36
2023-04-29T18:34:34.823Z,19.28
2023-04-29T18:36:36.798Z,18.96
2023-04-29T18:38:38.676Z,18.88
2023-04-29T18:40:41.294Z,19.02
2023-04-29T18:42:43.312Z,18.86
2023-04-29T18:44:49.442Z,18.71
2023-04-29T18:46:52.011Z,18.85
2023-04-29T18:48:54.049Z,18.98
2023-04-29T18:50:58.960Z,19.00
2023-04-29T18:53:01.020Z,19.07
2023-04-29T18:55:02.900Z,18.72
2023-04-29T18:57:05.084Z,18.84
2023-04-29T18:59:09.702Z,18.82
2023-04-29T19:01:11.669Z,18.88
2023-04-29T19:03:14.874Z,18.86
2023-04-29T19:05:16.985Z,18.82
2023-04-29T19:07:18.897Z,18.47
2023-04-29T19:09:20.745Z,18.40
2023-04-29T19:11:23.283Z,18.70
2023-04-29T19:13:26.847Z,18.65
2023-04-29T19:15:28.720Z,18.74
2023-04-29T19:17:30.651Z,18.63
2023-04-29T19:19:32.796Z,18.66
2023-04-29T19:21:34.892Z,18.70
2023-04-29T19:23:36.697Z,18.71
2023-04-29T19:25:38.656Z,18.53
2023-04-29T19:27:45.427Z,18.41
2023-04-29T19:29:47.388Z,18.29
2023-04-29T19:31:50.288Z,18.21
2023-04-29T19:33:52.611Z,18.26
2023-04-29T19:35:54.666Z,18.16
2023-04-29T19:37:56.507Z,18.01
2023-04-29T19:39:58.517Z,17.69
2023-04-29T19:42:00.505Z,17.76
2023-04-29T19:44:02.586Z,17.65
2023-04-29T19:46:04.608Z,17.29
2023-04-29T19:48:06.585Z,17.18
2023-04-29T19:50:09.956Z,17.08
2023-04-29T19:52:11.743Z,17.07
2023-04-29T19:54:14.164Z,16.92
2023-04-29T19:56:16.408Z,16.84
2023-04-29T19:58:18.238Z,16.86
2023-04-29T20:00:20.144Z,16.85
2023-04-29T20:02:22.225Z,16.74
2023-04-29T20:04:25.046Z,16.80
2023-04-29T20:06:27.279Z,16.70
2023-04-29T20:08:29.255Z,16.79
2023-04-29T20:10:31.485Z,16.61
2023-04-29T20:12:33.786Z,16.65
2023-04-29T20:14:36.520Z,16.37
2023-04-29T20:16:38.489Z,16.48
2023-04-29T20:18:41.116Z,16.44
2023-04-29T20:20:43.009Z,16.44
2023-04-29T20:22:44.938Z,16.37
2023-04-29T20:24:46.779Z,16.25
2023-04-29T20:26:48.670Z,16.39
2023-04-29T20:28:50.542Z,16.55
2023-04-29T20:30:52.434Z,16.32
2023-04-29T20:32:54.444Z,16.38
2023-04-29T20:34:56.356Z,16.39
2023-04-29T20:36:58.865Z,16.27
2023-04-29T20:39:01.599Z,16.31
2023-04-29T20:41:05.752Z,16.20
2023-04-29T20:43:07.938Z,16.19
2023-04-29T20:45:13.467Z,16.16
2023-04-29T20:47:15.314Z,16.39
2023-04-29T20:49:17.147Z,16.55
2023-04-29T20:51:19.015Z,16.15
2023-04-29T20:53:21.230Z,16.03
2023-04-29T20:55:23.159Z,16.08
2023-04-29T20:57:25.119Z,16.12
2023-04-29T20:59:27.164Z,16.02
2023-04-29T21:01:29.605Z,15.88
2023-04-29T21:03:31.419Z,15.83
2023-04-29T21:05:33.203Z,15.91
2023-04-29T21:07:36.141Z,15.78
2023-04-29T21:09:38.171Z,15.65
2023-04-29T21:11:40.082Z,15.71
2023-04-29T21:13:42.039Z,15.76
2023-04-29T21:15:46.591Z,15.77
2023-04-29T21:17:48.687Z,15.96
2023-04-29T21:19:50.678Z,15.86
2023-04-29T21:21:52.571Z,15.94
2023-04-29T21:23:54.403Z,16.02
2023-04-29T21:25:56.424Z,15.80
2023-04-29T21:27:58.338Z,15.67
2023-04-29T21:30:00.210Z,15.62
2023-04-29T21:32:05.162Z,15.54
2023-04-29T21:34:07.182Z,15.37
2023-04-29T21:36:09.369Z,15.30
2023-04-29T21:38:11.305Z,15.22
2023-04-29T21:40:14.500Z,15.37
2023-04-29T21:42:21.456Z,15.29
2023-04-29T21:44:23.482Z,15.48
2023-04-29T21:46:27.973Z,15.50
2023-04-29T21:48:29.923Z,15.43
2023-04-29T21:50:31.869Z,15.41
2023-04-29T21:52:35.297Z,15.44
2023-04-29T21:54:37.123Z,15.46
2023-04-29T21:56:39.042Z,15.21
2023-04-29T21:58:42.079Z,15.14
2023-04-29T22:00:58.298Z,15.13
2023-04-29T22:03:01.948Z,15.19
2023-04-29T22:05:04.474Z,15.24
2023-04-29T22:07:06.726Z,15.41
2023-04-29T22:09:08.838Z,15.11
2023-04-29T22:11:14.145Z,15.11
2023-04-29T22:13:16.097Z,15.18
2023-04-29T22:15:28.273Z,14.88
2023-04-29T22:17:31.341Z,14.93
2023-04-29T22:19:33.273Z,15.11
2023-04-29T22:21:35.271Z,14.94
2023-04-29T22:23:38.276Z,14.86
2023-04-29T22:25:40.176Z,14.78
2023-04-29T22:27:42.204Z,14.78
2023-04-29T22:29:44.097Z,14.70
2023-04-29T22:31:46.031Z,14.77
2023-04-29T22:33:48.117Z,14.72
2023-04-29T22:35:49.988Z,14.93
2023-04-29T22:37:51.986Z,14.71
2023-04-29T22:39:55.091Z,14.84
2023-04-29T22:41:57.267Z,14.68
2023-04-29T22:43:59.988Z,14.79
2023-04-29T22:46:02.248Z,14.69
2023-04-29T22:48:04.416Z,14.62
2023-04-29T22:50:07.237Z,14.60
2023-04-29T22:52:09.123Z,14.53
2023-04-29T22:54:13.225Z,14.55
2023-04-29T22:56:15.032Z,14.57
2023-04-29T22:58:16.984Z,14.60
2023-04-29T23:00:18.892Z,14.35
2023-04-29T23:02:20.988Z,14.48
2023-04-29T23:04:24.782Z,14.42
2023-04-29T23:06:27.694Z,14.60
2023-04-29T23:08:29.543Z,14.51
2023-04-29T23:10:33.648Z,14.56
2023-04-29T23:12:35.586Z,14.50
2023-04-29T23:14:39.687Z,14.49
2023-04-29T23:16:41.989Z,14.56
2023-04-29T23:18:44.203Z,14.56
2023-04-29T23:20:47.999Z,14.64
2023-04-29T23:22:50.547Z,14.56
2023-04-29T23:24:52.467Z,14.50
2023-04-29T23:26:54.288Z,14.43
2023-04-29T23:28:56.130Z,14.58
2023-04-29T23:31:00.486Z,14.46
2023-04-29T23:33:02.322Z,14.22
2023-04-29T23:35:04.543Z,14.27
2023-04-29T23:37:06.408Z,14.13
2023-04-29T23:39:08.281Z,14.21
2023-04-29T23:41:10.130Z,14.08
2023-04-29T23:43:12.151Z,14.12
2023-04-29T23:45:14.042Z,14.06
2023-04-29T23:47:15.954Z,14.04
2023-04-29T23:49:17.777Z,14.13
2023-04-29T23:51:22.716Z,14.41
2023-04-29T23:53:24.506Z,14.27
2023-04-29T23:55:26.453Z,14.36
2023-04-29T23:57:28.243Z,14.52
2023-04-29T23:59:30.061Z,14.33
